createdAt,value
2022-12-18T00:02:58.479Z,11.25
2022-12-18T00:06:01.172Z,10.07
2022-12-18T00:09:04.556Z,9.75
2022-12-18T00:15:18.288Z,10.85
2022-12-18T00:18:20.891Z,9.70
2022-12-18T00:21:23.596Z,10.40
2022-12-18T00:24:26.154Z,8.93
2022-12-18T00:27:28.566Z,9.47
2022-12-18T00:30:31.516Z,9.35
2022-12-18T00:33:34.451Z,9.98
2022-12-18T00:36:37.243Z,9.82
2022-12-18T00:39:39.614Z,10.98
2022-12-18T00:42:57.297Z,10.63
2022-12-18T00:45:59.872Z,10.63
2022-12-18T00:49:02.581Z,10.83
2022-12-18T00:52:05.522Z,11.55
2022-12-18T00:55:08.488Z,11.50
2022-12-18T00:58:11.940Z,11.27
2022-12-18T01:01:15.016Z,11.20
2022-12-18T01:04:17.875Z,11.57
2022-12-18T01:07:21.590Z,11.73
2022-12-18T01:10:25.140Z,10.88
2022-12-18T01:13:28.256Z,11.88
2022-12-18T01:16:30.715Z,11.27
2022-12-18T01:19:33.688Z,11.90
2022-12-18T01:22:37.290Z,11.57
2022-12-18T01:25:39.864Z,11.70
2022-12-18T01:28:45.845Z,12.07
2022-12-18T01:31:48.461Z,10.98
2022-12-18T01:34:51.201Z,13.73
2022-12-18T01:37:57.028Z,13.30
2022-12-18T01:41:00.342Z,13.97
2022-12-18T01:44:42.008Z,13.18
2022-12-18T01:47:46.496Z,12.77
2022-12-18T01:50:51.157Z,12.00
2022-12-18T01:53:53.657Z,12.70
2022-12-18T01:56:56.135Z,12.20
2022-12-18T02:00:02.636Z,10.43
2022-12-18T02:03:15.606Z,11.15
2022-12-18T02:06:20.951Z,11.88
2022-12-18T02:09:33.533Z,11.45
2022-12-18T02:13:08.469Z,12.30
2022-12-18T02:16:37.414Z,12.13
2022-12-18T02:19:58.421Z,11.18
2022-12-18T02:23:22.776Z,11.97
2022-12-18T02:26:35.717Z,12.88
2022-12-18T02:29:43.442Z,12.43
2022-12-18T02:32:53.207Z,12.43
2022-12-18T02:35:58.519Z,12.38
2022-12-18T02:39:03.267Z,13.43
2022-12-18T02:42:09.028Z,11.55
2022-12-18T02:45:12.183Z,12.03
2022-12-18T02:48:15.118Z,11.73
2022-12-18T02:51:43.643Z,12.35
2022-12-18T02:55:16.994Z,11.57
2022-12-18T02:58:29.652Z,11.68
2022-12-18T03:01:49.267Z,11.13
2022-12-18T03:05:05.452Z,11.38
2022-12-18T03:08:18.394Z,11.10
2022-12-18T03:11:42.166Z,10.27
2022-12-18T03:14:48.355Z,11.40
2022-12-18T03:18:16.514Z,11.57
2022-12-18T03:21:24.042Z,11.70
2022-12-18T03:24:30.840Z,12.00
2022-12-18T03:27:36.998Z,12.07
2022-12-18T03:30:46.745Z,10.93
2022-12-18T03:33:56.628Z,11.77
2022-12-18T03:37:07.358Z,12.68
2022-12-18T03:40:10.527Z,12.70
2022-12-18T03:43:33.789Z,11.88
2022-12-18T03:46:53.359Z,11.55
2022-12-18T03:50:44.017Z,10.97
2022-12-18T03:53:59.161Z,11.90
2022-12-18T03:57:12.771Z,11.95
2022-12-18T04:00:18.614Z,12.40
2022-12-18T04:03:43.934Z,12.68
2022-12-18T04:06:49.510Z,12.00
2022-12-18T04:09:57.578Z,12.70
2022-12-18T04:13:00.582Z,12.63
2022-12-18T04:16:04.249Z,12.60
2022-12-18T04:19:06.907Z,12.60
2022-12-18T04:22:15.097Z,13.60
2022-12-18T04:25:21.788Z,12.77
2022-12-18T04:28:39.936Z,13.10
2022-12-18T04:31:42.969Z,12.10
2022-12-18T04:34:45.794Z,11.82
2022-12-18T04:37:48.319Z,13.23
2022-12-18T04:40:51.695Z,12.93
2022-12-18T04:44:00.859Z,13.02
2022-12-18T04:47:03.997Z,13.95
2022-12-18T04:50:07.131Z,15.02
2022-12-18T04:53:09.595Z,14.20
2022-12-18T04:56:15.171Z,14.32
2022-12-18T04:59:18.066Z,15.27
2022-12-18T05:02:20.608Z,13.63
2022-12-18T05:05:23.135Z,14.73
2022-12-18T05:08:25.798Z,14.85
2022-12-18T05:11:28.300Z,14.48
2022-12-18T05:14:30.685Z,14.57
2022-12-18T05:17:33.113Z,14.88
2022-12-18T05:20:35.638Z,14.85
2022-12-18T05:23:38.855Z,13.93
2022-12-18T05:26:41.810Z,14.60
2022-12-18T05:29:44.237Z,15.45
2022-12-18T05:32:46.920Z,14.17
2022-12-18T05:35:57.104Z,15.00
2022-12-18T05:39:01.405Z,15.32
2022-12-18T05:42:03.997Z,15.43
2022-12-18T05:45:07.287Z,15.30
2022-12-18T05:48:14.726Z,15.32
2022-12-18T05:51:19.776Z,15.32
2022-12-18T05:54:22.864Z,14.30
2022-12-18T05:57:25.260Z,15.18
2022-12-18T06:00:27.929Z,14.93
2022-12-18T06:03:33.894Z,15.00
2022-12-18T06:06:36.665Z,14.73
2022-12-18T06:09:39.795Z,16.05
2022-12-18T06:12:42.296Z,14.27
2022-12-18T06:15:44.719Z,14.75
2022-12-18T06:18:47.312Z,16.70
2022-12-18T06:21:51.775Z,16.30
2022-12-18T06:24:54.241Z,15.70
2022-12-18T06:27:56.909Z,14.73
2022-12-18T06:30:59.368Z,14.68
2022-12-18T06:34:05.780Z,14.60
2022-12-18T06:37:08.190Z,14.43
2022-12-18T06:40:11.200Z,14.95
2022-12-18T06:43:13.654Z,14.35
2022-12-18T06:46:16.341Z,13.98
2022-12-18T06:49:18.994Z,13.70
2022-12-18T06:52:21.627Z,13.35
2022-12-18T06:55:24.220Z,14.47
2022-12-18T06:58:26.696Z,15.35
2022-12-18T07:01:29.409Z,14.70
2022-12-18T07:04:32.849Z,15.20
2022-12-18T07:07:36.095Z,15.40
2022-12-18T07:10:47.451Z,16.10
2022-12-18T07:13:51.409Z,16.23
2022-12-18T07:16:53.886Z,18.02
2022-12-18T07:19:56.542Z,18.48
2022-12-18T07:22:58.948Z,19.77
2022-12-18T07:26:12.672Z,19.60
2022-12-18T07:29:15.192Z,19.20
2022-12-18T07:32:17.908Z,17.02
2022-12-18T07:35:25.142Z,17.37
2022-12-18T07:38:28.075Z,17.42
2022-12-18T07:41:31.122Z,16.85
2022-12-18T07:44:40.694Z,16.10
2022-12-18T07:47:43.242Z,15.60
2022-12-18T07:50:45.809Z,15.63
2022-12-18T07:53:51.799Z,16.20
2022-12-18T07:56:55.621Z,16.10
2022-12-18T07:59:58.199Z,15.35
2022-12-18T08:03:01.176Z,15.60
2022-12-18T08:06:06.312Z,16.17
2022-12-18T08:09:11.227Z,14.00
2022-12-18T08:12:13.730Z,14.88
2022-12-18T08:15:16.206Z,13.85
2022-12-18T08:18:18.639Z,16.83
2022-12-18T08:21:31.916Z,15.80
2022-12-18T08:24:34.354Z,16.90
2022-12-18T08:27:37.376Z,15.20
2022-12-18T08:30:39.789Z,16.92
2022-12-18T08:33:43.677Z,17.95
2022-12-18T08:36:46.479Z,18.23
2022-12-18T08:39:48.950Z,15.82
2022-12-18T08:43:09.887Z,15.57
2022-12-18T08:46:13.265Z,16.92
2022-12-18T08:49:16.452Z,16.80
2022-12-18T08:52:18.979Z,16.85
2022-12-18T08:55:21.758Z,15.35
2022-12-18T08:58:25.362Z,15.60
2022-12-18T09:01:28.009Z,14.98
2022-12-18T09:04:30.565Z,13.35
2022-12-18T09:07:32.916Z,16.20
2022-12-18T09:10:43.529Z,15.38
2022-12-18T09:13:46.147Z,15.90
2022-12-18T09:16:48.597Z,15.82
2022-12-18T09:19:51.149Z,14.27
2022-12-18T09:22:53.892Z,15.05
2022-12-18T09:26:00.717Z,15.13
2022-12-18T09:29:04.159Z,16.37
2022-12-18T09:32:06.626Z,15.57
2022-12-18T09:35:09.178Z,15.38
2022-12-18T09:38:16.875Z,15.40
2022-12-18T09:41:42.559Z,16.35
2022-12-18T09:44:50.356Z,16.38
2022-12-18T09:47:56.488Z,16.50
2022-12-18T09:51:05.269Z,17.17
2022-12-18T09:54:30.896Z,15.63
2022-12-18T09:57:38.504Z,15.07
2022-12-18T10:00:42.434Z,15.35
2022-12-18T10:03:45.084Z,15.45
2022-12-18T10:07:10.525Z,15.63
2022-12-18T10:10:41.225Z,14.82
2022-12-18T10:13:55.507Z,15.77
2022-12-18T10:17:34.311Z,14.70
2022-12-18T10:20:46.067Z,14.07
2022-12-18T10:24:00.743Z,14.03
2022-12-18T10:27:27.367Z,13.68
2022-12-18T10:30:30.743Z,15.15
2022-12-18T10:33:34.507Z,13.88
2022-12-18T10:36:36.978Z,14.25
2022-12-18T10:39:40.632Z,14.47
2022-12-18T10:42:45.020Z,14.75
2022-12-18T10:46:12.953Z,15.07
2022-12-18T10:49:26.502Z,13.25
2022-12-18T10:52:29.249Z,14.25
2022-12-18T10:55:40.812Z,14.50
2022-12-18T10:58:43.672Z,15.43
2022-12-18T11:01:50.843Z,15.93
2022-12-18T11:04:54.155Z,15.57
2022-12-18T11:07:57.882Z,15.63
2022-12-18T11:11:00.546Z,15.37
2022-12-18T11:14:13.846Z,16.17
2022-12-18T11:17:36.860Z,15.88
2022-12-18T11:20:40.121Z,16.48
2022-12-18T11:23:54.165Z,16.88
2022-12-18T11:27:01.390Z,13.57
2022-12-18T11:30:26.145Z,14.95
2022-12-18T11:33:28.800Z,14.95
2022-12-18T11:36:37.551Z,13.95
2022-12-18T11:39:54.419Z,15.20
2022-12-18T11:43:10.760Z,14.40
2022-12-18T11:46:20.306Z,14.20
2022-12-18T11:49:31.057Z,14.77
2022-12-18T11:52:41.518Z,14.05
2022-12-18T11:56:22.708Z,14.43
2022-12-18T11:59:47.519Z,13.93
2022-12-18T12:03:16.059Z,15.18
2022-12-18T12:06:27.435Z,15.50
2022-12-18T12:09:41.506Z,15.05
2022-12-18T12:13:02.248Z,14.95
2022-12-18T12:16:18.195Z,15.47
2022-12-18T12:19:48.962Z,14.20
2022-12-18T12:23:26.146Z,14.45
2022-12-18T12:26:40.052Z,13.73
2022-12-18T12:30:06.719Z,13.32
2022-12-18T12:33:13.959Z,13.63
2022-12-18T12:36:19.866Z,14.25
2022-12-18T12:39:29.321Z,14.05
2022-12-18T12:43:01.001Z,13.13
2022-12-18T12:46:07.547Z,13.05
2022-12-18T12:49:18.646Z,13.53
2022-12-18T12:52:42.135Z,13.45
2022-12-18T12:55:44.857Z,13.88
2022-12-18T12:59:02.835Z,14.18
2022-12-18T13:02:12.058Z,13.25
2022-12-18T13:05:26.855Z,14.50
2022-12-18T13:08:33.285Z,14.00
2022-12-18T13:12:04.788Z,13.60
2022-12-18T13:15:26.180Z,12.82
2022-12-18T13:18:30.128Z,13.13
2022-12-18T13:21:34.811Z,13.10
2022-12-18T13:24:37.345Z,12.23
2022-12-18T13:27:46.741Z,14.77
2022-12-18T13:30:57.392Z,14.85
2022-12-18T13:34:26.991Z,15.45
2022-12-18T13:37:34.491Z,15.73
2022-12-18T13:40:39.689Z,16.70
2022-12-18T13:43:48.343Z,16.33
2022-12-18T13:46:53.467Z,16.88
2022-12-18T13:49:57.391Z,16.70
2022-12-18T13:53:00.233Z,17.20
2022-12-18T13:56:04.708Z,16.90
2022-12-18T13:59:18.574Z,17.55
2022-12-18T14:02:25.628Z,17.02
2022-12-18T14:05:31.252Z,16.30
2022-12-18T14:08:40.315Z,15.90
2022-12-18T14:11:48.716Z,16.23
2022-12-18T14:14:54.965Z,15.70
2022-12-18T14:18:23.093Z,15.75
2022-12-18T14:21:35.056Z,16.05
2022-12-18T14:24:37.529Z,15.50
2022-12-18T14:27:49.537Z,16.17
2022-12-18T14:30:52.059Z,15.32
2022-12-18T14:33:54.828Z,15.35
2022-12-18T14:36:57.469Z,15.45
2022-12-18T14:40:10.456Z,15.93
2022-12-18T14:43:14.364Z,15.75
2022-12-18T14:46:30.967Z,16.33
2022-12-18T14:49:35.292Z,16.52
2022-12-18T14:52:38.675Z,16.27
2022-12-18T14:55:48.502Z,16.87
2022-12-18T14:59:02.478Z,16.27
2022-12-18T15:02:11.958Z,15.65
2022-12-18T15:05:14.462Z,16.08
2022-12-18T15:08:50.741Z,16.40
2022-12-18T15:11:59.894Z,17.83
2022-12-18T15:15:04.049Z,16.20
2022-12-18T15:18:12.979Z,17.90
2022-12-18T15:21:20.257Z,18.85
2022-12-18T15:24:28.251Z,17.23
2022-12-18T15:27:38.812Z,17.38
2022-12-18T15:31:03.416Z,17.60
2022-12-18T15:34:09.293Z,17.73
2022-12-18T15:37:12.192Z,16.93
2022-12-18T15:40:23.388Z,16.20
2022-12-18T15:43:36.440Z,18.20
2022-12-18T15:46:39.117Z,17.10
2022-12-18T15:49:42.750Z,18.17
2022-12-18T15:52:48.789Z,18.08
2022-12-18T15:56:10.169Z,17.95
2022-12-18T15:59:18.687Z,18.17
2022-12-18T16:02:23.922Z,18.35
2022-12-18T16:05:28.905Z,18.05
2022-12-18T16:08:32.387Z,17.77
2022-12-18T16:11:44.130Z,20.33
2022-12-18T16:14:46.850Z,23.08
2022-12-18T16:17:49.749Z,25.13
2022-12-18T16:20:52.712Z,29.92
2022-12-18T16:23:55.611Z,28.03
2022-12-18T16:27:00.345Z,29.67
2022-12-18T16:30:03.696Z,31.50
2022-12-18T16:33:07.702Z,29.02
2022-12-18T16:36:10.667Z,27.90
2022-12-18T16:39:13.696Z,28.48
2022-12-18T16:42:20.101Z,28.55
2022-12-18T16:45:23.332Z,29.30
2022-12-18T16:48:26.106Z,26.73
2022-12-18T16:51:28.917Z,27.23
2022-12-18T16:54:31.724Z,27.70
2022-12-18T16:57:34.434Z,24.80
2022-12-18T17:00:38.961Z,27.75
2022-12-18T17:03:42.031Z,26.67
2022-12-18T17:06:52.058Z,24.60
2022-12-18T17:09:55.172Z,24.70
2022-12-18T17:12:58.031Z,24.63
2022-12-18T17:16:08.665Z,23.58
2022-12-18T17:19:16.815Z,23.17
2022-12-18T17:22:21.885Z,23.10
2022-12-18T17:25:24.463Z,23.20
2022-12-18T17:28:28.943Z,22.17
2022-12-18T17:31:32.580Z,22.48
2022-12-18T17:34:36.650Z,24.42
2022-12-18T17:37:39.578Z,24.58
2022-12-18T17:40:46.243Z,24.85
2022-12-18T17:43:56.855Z,27.05
2022-12-18T17:47:00.020Z,24.67
2022-12-18T17:50:03.686Z,23.73
2022-12-18T17:53:06.519Z,24.60
2022-12-18T17:56:13.162Z,26.13
2022-12-18T17:59:16.080Z,27.70
2022-12-18T18:02:19.217Z,25.05
2022-12-18T18:05:21.980Z,25.23
2022-12-18T18:08:25.856Z,25.38
2022-12-18T18:11:46.796Z,24.23
2022-12-18T18:14:49.804Z,23.17
2022-12-18T18:17:52.905Z,22.30
2022-12-18T18:20:55.755Z,23.70
2022-12-18T18:24:01.146Z,25.90
2022-12-18T18:27:04.292Z,25.45
2022-12-18T18:30:08.003Z,27.33
2022-12-18T18:33:12.177Z,27.15
2022-12-18T18:36:14.745Z,27.52
2022-12-18T18:39:17.680Z,28.58
2022-12-18T18:42:20.361Z,25.88
2022-12-18T18:45:23.404Z,29.75
2022-12-18T18:48:27.364Z,28.17
2022-12-18T18:51:35.124Z,30.83
2022-12-18T18:54:44.305Z,31.40
2022-12-18T18:57:54.916Z,31.08
2022-12-18T19:01:07.995Z,31.15
2022-12-18T19:04:10.936Z,43.17
2022-12-18T19:07:22.299Z,43.10
2022-12-18T19:10:33.566Z,41.53
2022-12-18T19:13:36.653Z,33.73
2022-12-18T19:16:40.882Z,33.75
2022-12-18T19:19:43.842Z,34.13
2022-12-18T19:22:55.090Z,34.70
2022-12-18T19:26:26.880Z,38.67
2022-12-18T19:29:25.707Z,35.50
2022-12-18T19:32:31.495Z,35.72
2022-12-18T19:35:34.283Z,38.63
2022-12-18T19:38:37.045Z,36.50
2022-12-18T19:41:40.943Z,34.15
2022-12-18T19:44:45.156Z,33.47
2022-12-18T19:47:47.858Z,34.22
2022-12-18T19:50:50.624Z,35.78
2022-12-18T19:53:58.442Z,32.90
2022-12-18T19:57:01.641Z,31.48
2022-12-18T20:00:05.934Z,31.25
2022-12-18T20:03:23.482Z,32.97
2022-12-18T20:06:36.053Z,35.38
2022-12-18T20:09:38.744Z,35.00
2022-12-18T20:12:42.816Z,37.08
2022-12-18T20:15:45.722Z,34.27
2022-12-18T20:18:49.277Z,35.65
2022-12-18T20:21:52.790Z,33.15
2022-12-18T20:24:55.419Z,32.30
2022-12-18T20:27:58.091Z,31.05
2022-12-18T20:31:03.159Z,31.98
2022-12-18T20:34:07.279Z,37.53
2022-12-18T20:37:19.491Z,36.13
2022-12-18T20:40:23.701Z,36.08
2022-12-18T20:43:26.238Z,39.17
2022-12-18T20:46:28.782Z,35.60
2022-12-18T20:49:31.252Z,37.03
2022-12-18T20:52:34.338Z,38.90
2022-12-18T20:55:41.826Z,38.00
2022-12-18T20:58:45.186Z,37.95
2022-12-18T21:01:48.820Z,34.53
2022-12-18T21:04:51.997Z,35.53
2022-12-18T21:07:54.420Z,34.88
2022-12-18T21:11:32.339Z,33.42
2022-12-18T21:14:35.528Z,33.90
2022-12-18T21:17:42.941Z,31.57
2022-12-18T21:20:47.728Z,32.08
2022-12-18T21:23:50.924Z,31.90
2022-12-18T21:26:53.991Z,31.33
2022-12-18T21:29:56.599Z,30.73
2022-12-18T21:32:59.252Z,30.77
2022-12-18T21:36:06.412Z,31.92
2022-12-18T21:39:09.055Z,30.90
2022-12-18T21:42:31.245Z,28.88
2022-12-18T21:45:34.028Z,27.55
2022-12-18T21:48:39.104Z,25.17
2022-12-18T21:51:41.507Z,24.80
2022-12-18T21:54:43.972Z,24.35
2022-12-18T21:57:46.646Z,25.27
2022-12-18T22:00:50.173Z,23.73
2022-12-18T22:03:53.483Z,22.10
2022-12-18T22:06:56.188Z,22.85
2022-12-18T22:09:59.075Z,22.67
2022-12-18T22:13:02.744Z,22.67
2022-12-18T22:16:05.387Z,23.77
2022-12-18T22:19:08.960Z,25.90
2022-12-18T22:22:11.449Z,24.88
2022-12-18T22:25:14.111Z,25.13
2022-12-18T22:28:35.044Z,22.07
2022-12-18T22:31:38.588Z,22.92
2022-12-18T22:34:41.116Z,25.33
2022-12-18T22:37:43.562Z,23.17
2022-12-18T22:40:46.039Z,22.98
2022-12-18T22:43:48.713Z,24.20
2022-12-18T22:46:56.211Z,22.55
2022-12-18T22:50:12.658Z,23.80
2022-12-18T22:53:15.088Z,21.42
2022-12-18T22:56:21.148Z,23.02
2022-12-18T22:59:25.067Z,21.50
2022-12-18T23:02:27.655Z,22.50
2022-12-18T23:05:31.388Z,22.33
2022-12-18T23:08:34.584Z,23.23
2022-12-18T23:11:37.033Z,22.75
2022-12-18T23:14:39.481Z,23.63
2022-12-18T23:17:42.004Z,23.50
2022-12-18T23:20:44.624Z,22.10
2022-12-18T23:23:48.531Z,24.05
2022-12-18T23:26:50.991Z,24.13
2022-12-18T23:29:53.397Z,21.97
2022-12-18T23:32:57.702Z,23.00
2022-12-18T23:36:01.448Z,22.50
2022-12-18T23:39:04.335Z,20.95
2022-12-18T23:42:06.708Z,22.90
2022-12-18T23:45:16.604Z,23.35
2022-12-18T23:48:21.055Z,22.25
2022-12-18T23:51:25.609Z,22.40
2022-12-18T23:54:33.161Z,23.25
2022-12-18T23:57:36.315Z,21.42
